Wednesday, September 17, 2014, 11:33 AM EDT

KFYJ, West Point, Middle Peninsula Regional Airport

Location: Shacklefords, VA, United States Lat: 37.521
Local Time: 11:33 AM EDT (15:33 GMT) Lon: -76.764
Time Zone: US/Eastern Elev: 22 ft

Show me the last for .
Show Decoded

2014-09-17 11:15 METAR KFYJ 171515Z AUTO 09005KT 10SM SCT028 SCT035 25/14 A3005 RMK AO2 T02460135
                 =
2014-09-17 10:55 METAR KFYJ 171455Z AUTO 08005KT 10SM SCT026 SCT035 25/14 A3005 RMK AO2 T02490141
                 =
2014-09-17 10:35 METAR KFYJ 171435Z AUTO 01004KT 10SM SCT025 SCT035 BKN075 24/16 A3005 RMK AO2
                 T02380157 =
2014-09-17 10:15 METAR KFYJ 171415Z AUTO 03006KT 10SM SCT075 23/16 A3005 RMK AO2 T02340163 =
2014-09-17 09:55 METAR KFYJ 171355Z AUTO 06004KT 10SM SCT070 23/17 A3005 RMK AO2 T02290165 =
2014-09-17 09:35 METAR KFYJ 171335Z AUTO 03006KT 10SM SCT070 22/16 A3005 RMK AO2 T02220163 =
2014-09-17 09:15 METAR KFYJ 171315Z AUTO 02003KT 10SM BKN070 BKN095 21/17 A3005 RMK AO2 T02100167
                 =
2014-09-17 08:55 METAR KFYJ 171255Z AUTO 00000KT 10SM SCT070 SCT095 19/16 A3005 RMK AO2 T01920158
                 =
2014-09-17 08:35 METAR KFYJ 171235Z AUTO 00000KT 10SM BKN070 19/16 A3005 RMK AO2 T01900156 =
2014-09-17 08:15 METAR KFYJ 171215Z AUTO 00000KT 10SM CLR 18/16 A3005 RMK AO2 T01840155 =
2014-09-17 07:55 METAR KFYJ 171155Z AUTO 35004KT 10SM SCT065 SCT095 18/15 A3004 RMK AO2 7////
                 T01790153 10197 20170 =
2014-09-17 07:35 METAR KFYJ 171135Z AUTO 35004KT 10SM SCT065 18/15 A3004 RMK AO2 T01760151 =
2014-09-17 07:15 METAR KFYJ 171115Z AUTO 33004KT 10SM SCT065 17/15 A3004 RMK AO2 T01710150 =
2014-09-17 06:55 METAR KFYJ 171055Z AUTO 34003KT 10SM CLR 17/15 A3003 RMK AO2 T01710145 =
2014-09-17 06:35 METAR KFYJ 171035Z AUTO 36003KT 10SM SCT100 17/15 A3003 RMK AO2 T01740146 =
2014-09-17 05:55 METAR KFYJ 170955Z AUTO 01003KT 10SM SCT100 18/15 A3002 RMK AO2 T01800145 =
2014-09-17 05:35 METAR KFYJ 170935Z AUTO 02003KT 10SM SCT100 18/15 A3002 RMK AO2 T01800147 =
2014-09-17 04:55 METAR KFYJ 170855Z AUTO 00000KT 10SM BKN090 19/15 A3002 RMK AO2 T01850150 =
2014-09-17 04:35 METAR KFYJ 170835Z AUTO 00000KT 10SM SCT065 OVC090 19/15 A3002 RMK AO2 T01850151
                 =
2014-09-17 04:15 METAR KFYJ 170815Z AUTO 00000KT 10SM SCT065 SCT080 OVC090 18/15 A3002 RMK AO2
                 T01840152 =
2014-09-17 03:55 METAR KFYJ 170755Z AUTO 00000KT 10SM SCT070 BKN090 19/15 A3002 RMK AO2 T01870150
                 =
2014-09-17 03:35 METAR KFYJ 170735Z AUTO 04003KT 10SM SCT070 BKN100 19/15 A3002 RMK AO2 T01880150
                 =
2014-09-17 03:15 METAR KFYJ 170715Z AUTO 00000KT 10SM BKN100 19/15 A3002 RMK AO2 T01880150 =
2014-09-17 02:55 METAR KFYJ 170655Z AUTO 00000KT 10SM SCT065 19/15 A3002 RMK AO2 T01910150 =
2014-09-17 02:35 METAR KFYJ 170635Z AUTO 00000KT 10SM BKN065 20/15 A3002 RMK AO2 T01950150 =
2014-09-17 02:15 METAR KFYJ 170615Z AUTO 01003KT 10SM BKN065 20/15 A3003 RMK AO2 T01960150 =
2014-09-17 01:55 METAR KFYJ 170555Z AUTO 04004KT 10SM BKN065 20/15 A3002 RMK AO2 T01970151 10218
                 20181 =
2014-09-17 01:35 METAR KFYJ 170535Z AUTO 03003KT 10SM BKN065 BKN080 20/15 A3003 RMK AO2 T01970151
                 =
2014-09-17 01:15 METAR KFYJ 170515Z AUTO 03003KT 10SM OVC065 20/15 A3003 RMK AO2 T02020154 =
2014-09-17 00:55 METAR KFYJ 170455Z AUTO 02004KT 10SM BKN065 OVC080 20/16 A3003 RMK AO2 T02020160
                 =
2014-09-17 00:35 METAR KFYJ 170435Z AUTO 00000KT 10SM BKN070 OVC075 20/17 A3003 RMK AO2 T02010165
                 =
2014-09-17 00:15 METAR KFYJ 170415Z AUTO 00000KT 10SM BKN055 OVC070 20/18 A3003 RMK AO2 T01970175
                 =
2014-09-16 23:55 METAR KFYJ 170355Z AUTO 00000KT 10SM OVC055 20/18 A3003 RMK AO2 T01950175 =
2014-09-16 23:35 METAR KFYJ 170335Z AUTO 00000KT 10SM OVC055 19/17 A3003 RMK AO2 T01920173 =
2014-09-16 23:15 METAR KFYJ 170315Z AUTO 00000KT 10SM BKN055 OVC080 19/17 A3003 RMK AO2 T01890171
                 =
2014-09-16 22:55 METAR KFYJ 170255Z AUTO 00000KT 10SM SCT055 BKN080 OVC110 19/17 A3002 RMK AO2
                 T01850168 =
2014-09-16 22:35 METAR KFYJ 170235Z AUTO 00000KT 10SM BKN055 BKN110 19/17 A3002 RMK AO2 T01860168
                 =
2014-09-16 22:15 METAR KFYJ 170215Z AUTO 00000KT 10SM SCT055 SCT110 19/17 A3001 RMK AO2 T01860165
                 =
2014-09-16 21:55 METAR KFYJ 170155Z AUTO 00000KT 10SM SCT110 19/17 A3001 RMK AO2 T01930170 =
2014-09-16 21:35 METAR KFYJ 170135Z AUTO 00000KT 10SM BKN110 20/17 A3001 RMK AO2 T01960172 =
2014-09-16 21:15 METAR KFYJ 170115Z AUTO 00000KT 10SM BKN110 20/17 A3001 RMK AO2 T01970166 =
2014-09-16 20:55 METAR KFYJ 170055Z AUTO 00000KT 10SM CLR 21/17 A3000 RMK AO2 T02070170 =
2014-09-16 20:35 METAR KFYJ 170035Z AUTO 02003KT 10SM SCT100 21/17 A3000 RMK AO2 T02100174 =
2014-09-16 20:15 METAR KFYJ 170015Z AUTO 00000KT 10SM SCT046 SCT075 BKN100 22/18 A3000 RMK AO2
                 T02150175 =
2014-09-16 19:55 METAR KFYJ 162355Z AUTO 00000KT 10SM SCT065 SCT080 BKN100 22/18 A3000 RMK AO2
                 T02170175 10275 20217 =
2014-09-16 19:35 METAR KFYJ 162335Z AUTO 00000KT 10SM SCT048 BKN070 OVC085 22/17 A2999 RMK AO2
                 T02230174 =
2014-09-16 19:15 METAR KFYJ 162315Z AUTO 00000KT 10SM BKN048 OVC065 23/17 A2999 RMK AO2 T02260174
                 =
2014-09-16 18:55 METAR KFYJ 162255Z AUTO 08003KT 10SM BKN065 BKN100 23/18 A2999 RMK AO2 T02290176
                 =
2014-09-16 18:35 METAR KFYJ 162235Z AUTO 00000KT 10SM BKN049 BKN060 BKN100 24/17 A2999 RMK AO2
                 T02350167 =
2014-09-16 18:15 METAR KFYJ 162215Z AUTO 00000KT 10SM OVC049 24/17 A2999 RMK AO2 T02350168 =
2014-09-16 17:55 METAR KFYJ 162155Z AUTO 05003KT 10SM SCT049 OVC060 24/17 A2999 RMK AO2 T02360166
                 =
2014-09-16 17:35 METAR KFYJ 162135Z AUTO 07006KT 10SM BKN046 BKN060 OVC065 24/17 A2998 RMK AO2
                 T02420165 =
2014-09-16 16:55 METAR KFYJ 162055Z AUTO 02003KT 10SM BKN046 OVC050 25/16 A2998 RMK AO2 T02450164
                 =
2014-09-16 16:35 METAR KFYJ 162035Z AUTO 04004KT 10SM BKN046 OVC050 25/17 A2998 RMK AO2 T02510167
                 =
2014-09-16 16:15 METAR KFYJ 162015Z AUTO 00000KT 10SM BKN050 OVC070 27/15 A2997 RMK AO2 T02690146
                 =
2014-09-16 15:55 METAR KFYJ 161955Z AUTO 00000KT 10SM SCT049 BKN060 OVC085 27/14 A2998 RMK AO2
                 T02700136 =
2014-09-16 15:35 METAR KFYJ 161935Z AUTO 00000KT 10SM SCT055 BKN075 OVC080 27/14 A2998 RMK AO2
                 T02700138 =
2014-09-16 15:15 METAR KFYJ 161915Z AUTO 00000KT 10SM OVC065 27/14 A2998 RMK AO2 T02680137 =
2014-09-16 14:55 METAR KFYJ 161855Z AUTO 32003KT 10SM BKN065 OVC080 27/14 A2998 RMK AO2 T02710142
                 =
2014-09-16 14:35 METAR KFYJ 161835Z AUTO 24003KT 10SM SCT050 OVC065 27/14 A2998 RMK AO2 T02730143
                 =
2014-09-16 14:15 METAR KFYJ 161815Z AUTO 00000KT 10SM SCT046 SCT055 OVC065 27/14 A2999 RMK AO2
                 T02700140 =
2014-09-16 13:55 METAR KFYJ 161755Z AUTO RMK TEMPORAIRILY INOPERATIVE =
2014-09-16 13:35 METAR KFYJ 161735Z AUTO RMK TEMPORAIRILY INOPERATIVE =
2014-09-16 13:15 METAR KFYJ 161715Z AUTO 26006KT 10SM SCT046 28/14 A3001 RMK AO2 T02770140 =
2014-09-16 12:55 METAR KFYJ 161655Z AUTO 00000KT 10SM 27/14 A3001 RMK AO2 T02730140 =
2014-09-16 12:38 METAR KFYJ 161638Z AUTO 00000KT A3001 RMK AO1 =

Support USWX by starting your Amazon purchase here.